sensor_id;sensor_type;location;lat;lon;timestamp;pressure;altitude;pressure_sealevel;temperature;humidity
55066;BME280;40964;42.114;24.220;2023-10-31T00:01:23;97995.53;;;12.73;78.23
55066;BME280;40964;42.114;24.220;2023-10-31T00:03:49;97988.75;;;12.65;78.61
55066;BME280;40964;42.114;24.220;2023-10-31T00:06:14;97990.88;;;12.57;78.96
55066;BME280;40964;42.114;24.220;2023-10-31T00:08:40;97995.13;;;12.58;79.91
55066;BME280;40964;42.114;24.220;2023-10-31T00:11:05;97987.69;;;12.55;80.46
55066;BME280;40964;42.114;24.220;2023-10-31T00:13:31;97990.31;;;12.55;80.25
55066;BME280;40964;42.114;24.220;2023-10-31T00:15:56;97988.38;;;12.50;80.60
55066;BME280;40964;42.114;24.220;2023-10-31T00:18:22;97985.00;;;12.43;81.54
55066;BME280;40964;42.114;24.220;2023-10-31T00:20:47;97979.84;;;12.48;80.99
55066;BME280;40964;42.114;24.220;2023-10-31T00:23:14;97986.38;;;12.45;80.83
55066;BME280;40964;42.114;24.220;2023-10-31T00:25:40;97977.75;;;12.38;81.64
55066;BME280;40964;42.114;24.220;2023-10-31T00:28:20;97982.44;;;12.36;81.89
55066;BME280;40964;42.114;24.220;2023-10-31T00:31:20;97980.50;;;12.32;82.00
55066;BME280;40964;42.114;24.220;2023-10-31T00:41:20;97980.81;;;12.05;83.66
55066;BME280;40964;42.114;24.220;2023-10-31T00:44:46;97980.88;;;11.99;83.21
55066;BME280;40964;42.114;24.220;2023-10-31T00:47:47;97972.81;;;11.93;83.50
55066;BME280;40964;42.114;24.220;2023-10-31T00:50:42;97967.41;;;11.88;84.26
55066;BME280;40964;42.114;24.220;2023-10-31T00:53:28;97960.06;;;11.72;84.57
55066;BME280;40964;42.114;24.220;2023-10-31T00:56:29;97966.72;;;11.75;84.38
55066;BME280;40964;42.114;24.220;2023-10-31T01:02:31;97968.41;;;11.51;84.37
55066;BME280;40964;42.114;24.220;2023-10-31T01:05:43;97965.16;;;11.49;84.42
55066;BME280;40964;42.114;24.220;2023-10-31T01:08:44;97976.72;;;11.48;84.38
55066;BME280;40964;42.114;24.220;2023-10-31T01:17:40;97969.81;;;11.03;87.30
55066;BME280;40964;42.114;24.220;2023-10-31T01:27:20;97965.78;;;11.01;87.51
55066;BME280;40964;42.114;24.220;2023-10-31T01:30:36;97973.72;;;10.94;88.23
55066;BME280;40964;42.114;24.220;2023-10-31T01:37:41;97961.22;;;10.90;88.94
55066;BME280;40964;42.114;24.220;2023-10-31T01:43:59;97955.78;;;10.85;89.62
55066;BME280;40964;42.114;24.220;2023-10-31T01:46:47;97951.97;;;10.80;90.20
55066;BME280;40964;42.114;24.220;2023-10-31T01:57:23;97946.66;;;10.62;90.70
55066;BME280;40964;42.114;24.220;2023-10-31T02:00:37;97953.34;;;10.58;92.50
55066;BME280;40964;42.114;24.220;2023-10-31T02:03:55;97951.72;;;10.57;93.74
55066;BME280;40964;42.114;24.220;2023-10-31T02:21:32;97944.97;;;10.68;93.05
55066;BME280;40964;42.114;24.220;2023-10-31T02:31:32;97933.78;;;10.79;91.92
55066;BME280;40964;42.114;24.220;2023-10-31T02:34:22;97935.00;;;10.76;91.87
55066;BME280;40964;42.114;24.220;2023-10-31T02:37:30;97932.91;;;10.85;91.52
55066;BME280;40964;42.114;24.220;2023-10-31T02:40:36;97937.09;;;10.93;91.11
55066;BME280;40964;42.114;24.220;2023-10-31T02:54:23;97933.63;;;10.99;90.22
55066;BME280;40964;42.114;24.220;2023-10-31T02:57:24;97932.44;;;10.95;90.34
55066;BME280;40964;42.114;24.220;2023-10-31T03:04:05;97944.34;;;10.72;90.40
55066;BME280;40964;42.114;24.220;2023-10-31T03:17:22;97941.66;;;10.54;90.56
55066;BME280;40964;42.114;24.220;2023-10-31T03:23:15;97948.16;;;10.51;91.69
55066;BME280;40964;42.114;24.220;2023-10-31T03:25:41;97954.59;;;10.49;91.76
55066;BME280;40964;42.114;24.220;2023-10-31T03:28:17;97944.09;;;10.49;91.21
55066;BME280;40964;42.114;24.220;2023-10-31T03:30:45;97942.47;;;10.48;90.72
55066;BME280;40964;42.114;24.220;2023-10-31T03:33:10;97942.94;;;10.38;90.96
55066;BME280;40964;42.114;24.220;2023-10-31T03:35:36;97952.28;;;10.34;91.16
55066;BME280;40964;42.114;24.220;2023-10-31T03:38:01;97948.22;;;10.32;91.65
55066;BME280;40964;42.114;24.220;2023-10-31T03:40:27;97950.69;;;10.27;91.36
55066;BME280;40964;42.114;24.220;2023-10-31T03:42:55;97953.91;;;10.29;92.56
55066;BME280;40964;42.114;24.220;2023-10-31T03:45:20;97946.63;;;10.31;92.90
55066;BME280;40964;42.114;24.220;2023-10-31T03:47:46;97949.03;;;10.32;92.88
55066;BME280;40964;42.114;24.220;2023-10-31T03:50:11;97949.50;;;10.22;92.72
55066;BME280;40964;42.114;24.220;2023-10-31T03:52:36;97945.66;;;10.18;92.10
55066;BME280;40964;42.114;24.220;2023-10-31T03:55:02;97941.63;;;10.16;92.05
55066;BME280;40964;42.114;24.220;2023-10-31T03:57:27;97947.06;;;10.14;92.04
55066;BME280;40964;42.114;24.220;2023-10-31T03:59:53;97938.19;;;10.15;92.38
55066;BME280;40964;42.114;24.220;2023-10-31T04:02:18;97944.84;;;10.18;92.52
55066;BME280;40964;42.114;24.220;2023-10-31T04:04:44;97936.38;;;10.16;92.84
55066;BME280;40964;42.114;24.220;2023-10-31T04:07:09;97944.63;;;10.19;92.30
55066;BME280;40964;42.114;24.220;2023-10-31T04:09:34;97942.22;;;10.18;91.61
55066;BME280;40964;42.114;24.220;2023-10-31T04:12:00;97936.78;;;10.13;90.87
55066;BME280;40964;42.114;24.220;2023-10-31T04:14:25;97931.75;;;10.11;90.07
55066;BME280;40964;42.114;24.220;2023-10-31T04:16:51;97930.34;;;10.09;89.55
55066;BME280;40964;42.114;24.220;2023-10-31T04:19:16;97934.19;;;10.06;90.21
55066;BME280;40964;42.114;24.220;2023-10-31T04:21:41;97926.72;;;10.03;89.83
55066;BME280;40964;42.114;24.220;2023-10-31T04:24:07;97925.31;;;10.01;89.44
55066;BME280;40964;42.114;24.220;2023-10-31T04:26:32;97923.94;;;9.98;89.33
55066;BME280;40964;42.114;24.220;2023-10-31T04:28:58;97911.47;;;9.80;88.74
55066;BME280;40964;42.114;24.220;2023-10-31T04:31:23;97910.06;;;9.78;89.74
55066;BME280;40964;42.114;24.220;2023-10-31T04:33:49;97910.25;;;9.83;90.29
55066;BME280;40964;42.114;24.220;2023-10-31T04:36:15;97912.69;;;9.78;90.26
55066;BME280;40964;42.114;24.220;2023-10-31T04:38:40;97912.31;;;9.67;90.30
55066;BME280;40964;42.114;24.220;2023-10-31T04:41:07;97916.75;;;9.67;90.29
55066;BME280;40964;42.114;24.220;2023-10-31T04:43:33;97913.13;;;9.68;90.24
55066;BME280;40964;42.114;24.220;2023-10-31T04:45:58;97911.75;;;9.59;90.49
55066;BME280;40964;42.114;24.220;2023-10-31T04:48:24;97906.47;;;9.59;90.67
55066;BME280;40964;42.114;24.220;2023-10-31T04:50:49;97919.59;;;9.65;90.78
55066;BME280;40964;42.114;24.220;2023-10-31T04:53:15;97915.56;;;9.63;91.09
55066;BME280;40964;42.114;24.220;2023-10-31T04:55:40;97905.88;;;9.63;92.33
55066;BME280;40964;42.114;24.220;2023-10-31T04:58:06;97904.63;;;9.73;92.48
55066;BME280;40964;42.114;24.220;2023-10-31T05:00:31;97899.97;;;9.75;93.34
55066;BME280;40964;42.114;24.220;2023-10-31T05:02:56;97910.00;;;9.91;92.85
55066;BME280;40964;42.114;24.220;2023-10-31T05:05:23;97903.78;;;9.79;91.97
55066;BME280;40964;42.114;24.220;2023-10-31T05:07:48;97914.91;;;9.81;91.62
55066;BME280;40964;42.114;24.220;2023-10-31T05:10:14;97915.06;;;9.86;90.90
55066;BME280;40964;42.114;24.220;2023-10-31T05:12:40;97906.78;;;9.89;90.33
55066;BME280;40964;42.114;24.220;2023-10-31T05:15:06;97918.28;;;9.88;90.86
55066;BME280;40964;42.114;24.220;2023-10-31T05:17:31;97922.16;;;9.85;90.89
55066;BME280;40964;42.114;24.220;2023-10-31T05:19:56;97907.78;;;9.88;90.29
55066;BME280;40964;42.114;24.220;2023-10-31T05:22:22;97917.91;;;9.91;89.79
55066;BME280;40964;42.114;24.220;2023-10-31T05:24:47;97918.47;;;9.93;89.10
55066;BME280;40964;42.114;24.220;2023-10-31T05:27:13;97923.16;;;9.91;89.06
55066;BME280;40964;42.114;24.220;2023-10-31T05:29:39;97927.19;;;9.87;88.71
55066;BME280;40964;42.114;24.220;2023-10-31T05:32:04;97930.03;;;9.85;89.14
55066;BME280;40964;42.114;24.220;2023-10-31T05:34:30;97937.69;;;9.93;89.57
55066;BME280;40964;42.114;24.220;2023-10-31T05:36:56;97933.59;;;10.04;89.67
55066;BME280;40964;42.114;24.220;2023-10-31T05:39:21;97921.66;;;10.08;88.87
55066;BME280;40964;42.114;24.220;2023-10-31T05:41:46;97933.31;;;10.19;89.23
55066;BME280;40964;42.114;24.220;2023-10-31T05:44:12;97929.25;;;10.30;88.61
55066;BME280;40964;42.114;24.220;2023-10-31T05:46:40;97924.16;;;10.35;88.13
55066;BME280;40964;42.114;24.220;2023-10-31T05:49:07;97918.13;;;10.34;88.00
55066;BME280;40964;42.114;24.220;2023-10-31T05:51:32;97927.91;;;10.52;88.41
55066;BME280;40964;42.114;24.220;2023-10-31T05:53:58;97929.44;;;10.60;87.80
55066;BME280;40964;42.114;24.220;2023-10-31T05:56:23;97935.88;;;10.70;87.78
55066;BME280;40964;42.114;24.220;2023-10-31T05:58:49;97945.91;;;10.80;88.04
55066;BME280;40964;42.114;24.220;2023-10-31T06:01:15;97944.03;;;10.87;88.14
55066;BME280;40964;42.114;24.220;2023-10-31T06:03:43;97948.22;;;10.95;87.83
55066;BME280;40964;42.114;24.220;2023-10-31T06:06:10;97946.94;;;11.04;87.70
55066;BME280;40964;42.114;24.220;2023-10-31T06:08:37;97913.66;;;10.91;88.07
55066;BME280;40964;42.114;24.220;2023-10-31T06:11:03;97955.84;;;11.28;87.36
55066;BME280;40964;42.114;24.220;2023-10-31T06:13:29;97961.19;;;11.40;87.57
55066;BME280;40964;42.114;24.220;2023-10-31T06:15:56;97971.91;;;11.45;87.96
55066;BME280;40964;42.114;24.220;2023-10-31T06:18:23;97974.03;;;11.54;89.42
55066;BME280;40964;42.114;24.220;2023-10-31T06:20:49;97973.34;;;11.59;90.83
55066;BME280;40964;42.114;24.220;2023-10-31T06:23:14;97968.25;;;11.64;90.43
55066;BME280;40964;42.114;24.220;2023-10-31T06:25:40;97974.09;;;11.66;92.83
55066;BME280;40964;42.114;24.220;2023-10-31T06:28:05;97973.00;;;11.55;92.61
55066;BME280;40964;42.114;24.220;2023-10-31T06:30:30;97966.56;;;11.51;92.62
55066;BME280;40964;42.114;24.220;2023-10-31T06:32:56;97964.97;;;11.50;92.38
55066;BME280;40964;42.114;24.220;2023-10-31T06:35:22;97964.66;;;11.58;92.16
55066;BME280;40964;42.114;24.220;2023-10-31T06:37:50;97927.88;;;11.52;91.77
55066;BME280;40964;42.114;24.220;2023-10-31T06:40:16;97965.97;;;11.68;90.82
55066;BME280;40964;42.114;24.220;2023-10-31T06:42:41;97959.19;;;11.78;91.82
55066;BME280;40964;42.114;24.220;2023-10-31T06:45:07;97957.16;;;11.80;93.20
55066;BME280;40964;42.114;24.220;2023-10-31T06:47:32;97952.63;;;11.87;93.39
55066;BME280;40964;42.114;24.220;2023-10-31T06:49:58;97954.75;;;11.97;92.45
55066;BME280;40964;42.114;24.220;2023-10-31T06:52:26;97957.66;;;12.07;91.64
55066;BME280;40964;42.114;24.220;2023-10-31T06:54:52;97955.66;;;12.21;90.88
55066;BME280;40964;42.114;24.220;2023-10-31T06:57:17;97952.72;;;12.29;91.38
55066;BME280;40964;42.114;24.220;2023-10-31T06:59:43;97952.16;;;12.39;89.97
55066;BME280;40964;42.114;24.220;2023-10-31T07:02:08;97944.75;;;12.47;88.42
55066;BME280;40964;42.114;24.220;2023-10-31T07:04:34;97944.44;;;12.56;87.24
55066;BME280;40964;42.114;24.220;2023-10-31T07:07:00;97944.00;;;12.59;87.45
55066;BME280;40964;42.114;24.220;2023-10-31T07:09:26;97936.56;;;12.67;86.66
55066;BME280;40964;42.114;24.220;2023-10-31T07:11:52;97936.44;;;12.74;87.26
55066;BME280;40964;42.114;24.220;2023-10-31T07:14:18;97923.81;;;12.76;86.61
55066;BME280;40964;42.114;24.220;2023-10-31T07:16:43;97927.19;;;12.95;85.55
55066;BME280;40964;42.114;24.220;2023-10-31T07:19:10;97927.53;;;13.10;85.19
55066;BME280;40964;42.114;24.220;2023-10-31T07:21:35;97927.19;;;13.18;83.82
55066;BME280;40964;42.114;24.220;2023-10-31T07:24:01;97916.09;;;13.28;84.15
55066;BME280;40964;42.114;24.220;2023-10-31T07:26:27;97918.75;;;13.40;83.63
55066;BME280;40964;42.114;24.220;2023-10-31T07:28:53;97904.81;;;13.44;82.92
55066;BME280;40964;42.114;24.220;2023-10-31T07:31:18;97919.75;;;13.62;82.42
55066;BME280;40964;42.114;24.220;2023-10-31T07:33:44;97913.84;;;13.72;81.45
55066;BME280;40964;42.114;24.220;2023-10-31T07:36:11;97914.84;;;13.82;81.81
55066;BME280;40964;42.114;24.220;2023-10-31T07:38:36;97918.97;;;13.90;80.90
55066;BME280;40964;42.114;24.220;2023-10-31T07:41:02;97916.22;;;13.97;80.23
55066;BME280;40964;42.114;24.220;2023-10-31T07:43:27;97916.41;;;14.07;79.11
55066;BME280;40964;42.114;24.220;2023-10-31T07:45:52;97912.91;;;14.18;78.37
55066;BME280;40964;42.114;24.220;2023-10-31T07:48:18;97921.94;;;14.34;77.88
55066;BME280;40964;42.114;24.220;2023-10-31T07:50:43;97908.88;;;14.44;77.07
55066;BME280;40964;42.114;24.220;2023-10-31T07:53:10;97919.03;;;14.64;76.85
55066;BME280;40964;42.114;24.220;2023-10-31T07:55:36;97896.75;;;14.76;76.18
55066;BME280;40964;42.114;24.220;2023-10-31T07:58:02;97900.69;;;14.91;74.12
55066;BME280;40964;42.114;24.220;2023-10-31T08:00:27;97907.81;;;15.07;73.97
55066;BME280;40964;42.114;24.220;2023-10-31T08:02:52;97902.09;;;15.15;73.08
55066;BME280;40964;42.114;24.220;2023-10-31T08:05:18;97887.56;;;15.18;72.08
55066;BME280;40964;42.114;24.220;2023-10-31T08:07:43;97906.66;;;15.37;71.61
55066;BME280;40964;42.114;24.220;2023-10-31T08:10:09;97901.97;;;15.44;71.28
55066;BME280;40964;42.114;24.220;2023-10-31T08:12:35;97886.28;;;15.59;70.53
55066;BME280;40964;42.114;24.220;2023-10-31T08:15:01;97897.59;;;15.71;70.34
55066;BME280;40964;42.114;24.220;2023-10-31T08:17:26;97897.47;;;15.83;69.49
55066;BME280;40964;42.114;24.220;2023-10-31T08:19:51;97893.34;;;15.92;69.38
55066;BME280;40964;42.114;24.220;2023-10-31T08:22:17;97897.41;;;16.00;67.57
55066;BME280;40964;42.114;24.220;2023-10-31T08:24:42;97894.91;;;16.15;67.81
55066;BME280;40964;42.114;24.220;2023-10-31T08:27:08;97898.16;;;16.22;67.16
55066;BME280;40964;42.114;24.220;2023-10-31T08:29:33;97884.09;;;16.22;66.62
55066;BME280;40964;42.114;24.220;2023-10-31T08:31:59;97889.84;;;16.40;65.59
55066;BME280;40964;42.114;24.220;2023-10-31T08:34:24;97891.50;;;16.46;66.46
55066;BME280;40964;42.114;24.220;2023-10-31T08:36:50;97890.28;;;16.59;65.92
55066;BME280;40964;42.114;24.220;2023-10-31T08:39:18;97883.72;;;16.67;63.63
55066;BME280;40964;42.114;24.220;2023-10-31T08:41:53;97877.97;;;16.75;65.20
55066;BME280;40964;42.114;24.220;2023-10-31T08:44:19;97873.75;;;16.79;64.20
55066;BME280;40964;42.114;24.220;2023-10-31T08:46:45;97864.03;;;16.90;63.18
55066;BME280;40964;42.114;24.220;2023-10-31T08:49:11;97859.25;;;16.92;61.82
55066;BME280;40964;42.114;24.220;2023-10-31T08:51:37;97852.66;;;17.05;62.75
55066;BME280;40964;42.114;24.220;2023-10-31T08:54:02;97839.81;;;17.34;63.43
55066;BME280;40964;42.114;24.220;2023-10-31T08:56:28;97843.34;;;17.49;60.62
55066;BME280;40964;42.114;24.220;2023-10-31T08:58:53;97835.41;;;17.59;60.62
55066;BME280;40964;42.114;24.220;2023-10-31T09:01:19;97830.72;;;17.72;60.12
55066;BME280;40964;42.114;24.220;2023-10-31T09:03:45;97807.28;;;17.79;59.02
55066;BME280;40964;42.114;24.220;2023-10-31T09:06:10;97816.41;;;18.03;59.42
55066;BME280;40964;42.114;24.220;2023-10-31T09:08:36;97814.53;;;18.14;57.80
55066;BME280;40964;42.114;24.220;2023-10-31T09:11:03;97808.72;;;18.22;57.10
55066;BME280;40964;42.114;24.220;2023-10-31T09:13:29;97801.00;;;18.21;57.09
55066;BME280;40964;42.114;24.220;2023-10-31T09:15:54;97798.34;;;18.36;57.80
55066;BME280;40964;42.114;24.220;2023-10-31T09:18:20;97798.34;;;18.36;56.71
55066;BME280;40964;42.114;24.220;2023-10-31T09:20:45;97793.56;;;18.43;56.81
55066;BME280;40964;42.114;24.220;2023-10-31T09:23:11;97799.69;;;18.43;56.28
55066;BME280;40964;42.114;24.220;2023-10-31T09:25:37;97782.38;;;18.51;56.71
55066;BME280;40964;42.114;24.220;2023-10-31T09:28:03;97791.16;;;18.72;56.36
55066;BME280;40964;42.114;24.220;2023-10-31T09:30:28;97775.44;;;18.81;55.88
55066;BME280;40964;42.114;24.220;2023-10-31T09:32:53;97771.41;;;18.83;55.11
55066;BME280;40964;42.114;24.220;2023-10-31T09:35:19;97767.09;;;19.03;55.64
55066;BME280;40964;42.114;24.220;2023-10-31T09:37:44;97752.38;;;19.20;55.15
55066;BME280;40964;42.114;24.220;2023-10-31T09:40:13;97750.22;;;19.33;53.71
55066;BME280;40964;42.114;24.220;2023-10-31T09:42:39;97739.78;;;19.36;54.88
55066;BME280;40964;42.114;24.220;2023-10-31T09:45:05;97736.84;;;19.38;54.18
55066;BME280;40964;42.114;24.220;2023-10-31T09:47:34;97742.88;;;19.59;52.48
55066;BME280;40964;42.114;24.220;2023-10-31T09:49:59;97744.66;;;19.78;51.81
55066;BME280;40964;42.114;24.220;2023-10-31T09:52:25;97743.00;;;19.88;51.48
55066;BME280;40964;42.114;24.220;2023-10-31T09:54:52;97738.19;;;19.84;50.97
55066;BME280;40964;42.114;24.220;2023-10-31T09:57:17;97735.25;;;19.86;51.64
55066;BME280;40964;42.114;24.220;2023-10-31T09:59:43;97716.56;;;19.86;51.26
55066;BME280;40964;42.114;24.220;2023-10-31T10:02:09;97723.38;;;20.02;50.42
55066;BME280;40964;42.114;24.220;2023-10-31T10:04:37;97705.97;;;20.10;51.08
55066;BME280;40964;42.114;24.220;2023-10-31T10:07:03;97714.59;;;20.31;49.73
55066;BME280;40964;42.114;24.220;2023-10-31T10:09:29;97708.34;;;20.46;49.45
55066;BME280;40964;42.114;24.220;2023-10-31T10:11:55;97703.28;;;20.44;49.16
55066;BME280;40964;42.114;24.220;2023-10-31T10:14:25;97699.59;;;20.64;48.79
55066;BME280;40964;42.114;24.220;2023-10-31T10:16:52;97708.25;;;20.56;47.35
55066;BME280;40964;42.114;24.220;2023-10-31T10:19:19;97707.16;;;20.57;47.79
55066;BME280;40964;42.114;24.220;2023-10-31T10:21:49;97705.81;;;20.59;47.26
55066;BME280;40964;42.114;24.220;2023-10-31T10:24:16;97691.75;;;20.73;47.04
55066;BME280;40964;42.114;24.220;2023-10-31T10:26:42;97699.56;;;20.69;46.28
55066;BME280;40964;42.114;24.220;2023-10-31T10:29:07;97695.41;;;20.82;46.69
55066;BME280;40964;42.114;24.220;2023-10-31T10:31:32;97695.13;;;20.83;47.53
55066;BME280;40964;42.114;24.220;2023-10-31T10:33:58;97684.75;;;21.01;45.61
55066;BME280;40964;42.114;24.220;2023-10-31T10:36:25;97681.22;;;21.05;44.88
55066;BME280;40964;42.114;24.220;2023-10-31T10:38:56;97672.59;;;20.89;45.54
55066;BME280;40964;42.114;24.220;2023-10-31T10:41:27;97668.53;;;21.16;45.49
55066;BME280;40964;42.114;24.220;2023-10-31T10:43:56;97663.50;;;21.33;45.12
55066;BME280;40964;42.114;24.220;2023-10-31T10:46:25;97666.38;;;21.37;45.87
55066;BME280;40964;42.114;24.220;2023-10-31T10:48:55;97654.84;;;21.41;44.17
55066;BME280;40964;42.114;24.220;2023-10-31T10:51:29;97653.81;;;21.37;45.30
55066;BME280;40964;42.114;24.220;2023-10-31T10:54:07;97647.81;;;21.45;44.92
55066;BME280;40964;42.114;24.220;2023-10-31T10:56:38;97640.03;;;21.63;44.69
55066;BME280;40964;42.114;24.220;2023-10-31T10:59:14;97639.06;;;21.91;43.40
55066;BME280;40964;42.114;24.220;2023-10-31T11:01:41;97642.81;;;21.90;44.37
55066;BME280;40964;42.114;24.220;2023-10-31T11:04:08;97631.06;;;21.72;43.52
55066;BME280;40964;42.114;24.220;2023-10-31T11:06:33;97631.47;;;21.66;44.56
55066;BME280;40964;42.114;24.220;2023-10-31T11:09:00;97616.84;;;21.58;43.95
55066;BME280;40964;42.114;24.220;2023-10-31T11:11:26;97615.53;;;21.88;44.25
55066;BME280;40964;42.114;24.220;2023-10-31T11:13:53;97615.47;;;21.93;42.97
55066;BME280;40964;42.114;24.220;2023-10-31T11:16:29;97603.72;;;22.08;43.71
55066;BME280;40964;42.114;24.220;2023-10-31T11:18:58;97600.09;;;21.85;43.43
55066;BME280;40964;42.114;24.220;2023-10-31T11:21:28;97603.06;;;21.97;43.56
55066;BME280;40964;42.114;24.220;2023-10-31T11:23:58;97604.53;;;21.76;44.30
55066;BME280;40964;42.114;24.220;2023-10-31T11:26:30;97597.16;;;21.68;44.35
55066;BME280;40964;42.114;24.220;2023-10-31T11:29:06;97595.72;;;21.89;43.60
55066;BME280;40964;42.114;24.220;2023-10-31T11:31:32;97574.00;;;21.91;45.45
55066;BME280;40964;42.114;24.220;2023-10-31T11:34:01;97591.50;;;22.02;44.32
55066;BME280;40964;42.114;24.220;2023-10-31T11:36:26;97588.59;;;21.98;43.83
55066;BME280;40964;42.114;24.220;2023-10-31T11:39:10;97587.84;;;21.79;44.55
55066;BME280;40964;42.114;24.220;2023-10-31T11:41:38;97583.72;;;21.87;44.27
55066;BME280;40964;42.114;24.220;2023-10-31T11:44:03;97584.59;;;21.82;44.68
55066;BME280;40964;42.114;24.220;2023-10-31T11:46:29;97582.41;;;22.17;43.40
55066;BME280;40964;42.114;24.220;2023-10-31T11:48:55;97572.38;;;22.22;42.82
55066;BME280;40964;42.114;24.220;2023-10-31T11:51:21;97563.56;;;22.22;44.29
55066;BME280;40964;42.114;24.220;2023-10-31T11:53:50;97564.34;;;22.22;42.85
55066;BME280;40964;42.114;24.220;2023-10-31T11:56:16;97560.75;;;22.27;43.32
55066;BME280;40964;42.114;24.220;2023-10-31T11:58:42;97555.41;;;22.27;43.26
55066;BME280;40964;42.114;24.220;2023-10-31T12:01:09;97562.19;;;22.38;43.76
55066;BME280;40964;42.114;24.220;2023-10-31T12:03:42;97549.44;;;22.44;42.87
55066;BME280;40964;42.114;24.220;2023-10-31T12:06:09;97544.50;;;22.51;44.11
55066;BME280;40964;42.114;24.220;2023-10-31T12:08:39;97534.78;;;22.41;42.89
55066;BME280;40964;42.114;24.220;2023-10-31T12:11:31;97538.03;;;22.52;43.37
55066;BME280;40964;42.114;24.220;2023-10-31T12:14:02;97534.47;;;22.56;42.51
55066;BME280;40964;42.114;24.220;2023-10-31T12:16:31;97532.38;;;22.53;42.93
55066;BME280;40964;42.114;24.220;2023-10-31T12:19:04;97521.44;;;22.63;43.40
55066;BME280;40964;42.114;24.220;2023-10-31T12:21:43;97514.94;;;22.78;42.02
55066;BME280;40964;42.114;24.220;2023-10-31T12:24:10;97515.22;;;22.90;42.77
55066;BME280;40964;42.114;24.220;2023-10-31T12:26:36;97513.84;;;22.79;42.27
55066;BME280;40964;42.114;24.220;2023-10-31T12:29:08;97511.38;;;22.83;42.29
55066;BME280;40964;42.114;24.220;2023-10-31T12:31:34;97488.63;;;22.94;43.72
55066;BME280;40964;42.114;24.220;2023-10-31T12:34:05;97501.47;;;23.06;42.00
55066;BME280;40964;42.114;24.220;2023-10-31T12:36:31;97500.19;;;23.03;42.57
55066;BME280;40964;42.114;24.220;2023-10-31T12:38:57;97494.88;;;22.89;43.55
55066;BME280;40964;42.114;24.220;2023-10-31T12:41:23;97495.34;;;22.91;43.16
55066;BME280;40964;42.114;24.220;2023-10-31T12:43:48;97491.59;;;22.92;43.40
55066;BME280;40964;42.114;24.220;2023-10-31T12:46:30;97493.59;;;22.87;43.66
55066;BME280;40964;42.114;24.220;2023-10-31T12:48:57;97484.28;;;22.84;44.54
55066;BME280;40964;42.114;24.220;2023-10-31T12:51:22;97482.16;;;22.81;43.51
55066;BME280;40964;42.114;24.220;2023-10-31T12:53:49;97483.25;;;22.80;44.68
55066;BME280;40964;42.114;24.220;2023-10-31T12:56:40;97485.00;;;22.62;44.30
55066;BME280;40964;42.114;24.220;2023-10-31T12:59:07;97471.06;;;22.24;45.44
55066;BME280;40964;42.114;24.220;2023-10-31T13:01:39;97471.66;;;22.35;46.72
55066;BME280;40964;42.114;24.220;2023-10-31T13:04:07;97471.28;;;22.14;44.91
55066;BME280;40964;42.114;24.220;2023-10-31T13:06:33;97466.69;;;22.01;45.61
55066;BME280;40964;42.114;24.220;2023-10-31T13:08:58;97470.88;;;22.07;46.25
55066;BME280;40964;42.114;24.220;2023-10-31T13:11:29;97468.69;;;22.09;45.67
55066;BME280;40964;42.114;24.220;2023-10-31T13:13:55;97468.69;;;22.09;45.98
55066;BME280;40964;42.114;24.220;2023-10-31T13:16:20;97454.50;;;21.81;46.34
55066;BME280;40964;42.114;24.220;2023-10-31T13:18:46;97468.88;;;21.99;46.32
55066;BME280;40964;42.114;24.220;2023-10-31T13:21:12;97463.22;;;22.00;46.34
55066;BME280;40964;42.114;24.220;2023-10-31T13:23:42;97467.81;;;22.14;46.70
55066;BME280;40964;42.114;24.220;2023-10-31T13:26:13;97468.47;;;22.05;45.09
55066;BME280;40964;42.114;24.220;2023-10-31T13:28:39;97454.22;;;21.96;46.05
55066;BME280;40964;42.114;24.220;2023-10-31T13:31:05;97451.03;;;21.94;46.59
55066;BME280;40964;42.114;24.220;2023-10-31T13:33:32;97449.47;;;21.93;46.34
55066;BME280;40964;42.114;24.220;2023-10-31T13:35:58;97457.16;;;21.81;47.05
55066;BME280;40964;42.114;24.220;2023-10-31T13:38:23;97461.63;;;21.72;47.22
55066;BME280;40964;42.114;24.220;2023-10-31T13:40:48;97471.75;;;21.75;47.28
55066;BME280;40964;42.114;24.220;2023-10-31T13:43:14;97476.72;;;21.68;47.02
55066;BME280;40964;42.114;24.220;2023-10-31T13:45:39;97476.38;;;21.56;46.60
55066;BME280;40964;42.114;24.220;2023-10-31T13:48:05;97463.78;;;21.56;47.63
55066;BME280;40964;42.114;24.220;2023-10-31T13:50:30;97462.00;;;21.51;47.34
55066;BME280;40964;42.114;24.220;2023-10-31T13:52:56;97468.34;;;21.56;47.31
55066;BME280;40964;42.114;24.220;2023-10-31T13:55:21;97468.53;;;21.45;47.65
55066;BME280;40964;42.114;24.220;2023-10-31T13:57:49;97474.44;;;21.29;47.65
55066;BME280;40964;42.114;24.220;2023-10-31T14:00:15;97476.94;;;21.20;47.92
55066;BME280;40964;42.114;24.220;2023-10-31T14:02:40;97482.22;;;21.25;48.78
55066;BME280;40964;42.114;24.220;2023-10-31T14:05:06;97475.00;;;21.25;48.10
55066;BME280;40964;42.114;24.220;2023-10-31T14:07:32;97472.78;;;21.33;48.86
55066;BME280;40964;42.114;24.220;2023-10-31T14:10:00;97470.69;;;21.11;48.44
55066;BME280;40964;42.114;24.220;2023-10-31T14:12:26;97458.06;;;20.97;49.08
55066;BME280;40964;42.114;24.220;2023-10-31T14:14:53;97470.00;;;20.86;48.51
55066;BME280;40964;42.114;24.220;2023-10-31T14:17:19;97461.59;;;20.93;48.99
55066;BME280;40964;42.114;24.220;2023-10-31T14:19:44;97460.53;;;20.94;49.82
55066;BME280;40964;42.114;24.220;2023-10-31T14:22:12;97450.56;;;20.81;49.11
55066;BME280;40964;42.114;24.220;2023-10-31T14:24:38;97454.41;;;20.75;49.66
55066;BME280;40964;42.114;24.220;2023-10-31T14:27:03;97451.97;;;20.78;49.85
55066;BME280;40964;42.114;24.220;2023-10-31T14:29:28;97454.34;;;20.80;49.60
55066;BME280;40964;42.114;24.220;2023-10-31T14:31:54;97447.41;;;20.79;50.01